createdAt,value
2023-04-18T00:27:42.896Z,79.44
2023-04-18T00:57:43.383Z,82.27
2023-04-18T01:27:42.961Z,83.5
2023-04-18T01:57:43.102Z,83.43
2023-04-18T02:27:43.002Z,83.69
2023-04-18T02:57:43.208Z,81.9
2023-04-18T03:27:42.576Z,82.86
2023-04-18T04:27:43.010Z,82.33
2023-04-18T04:57:42.760Z,81.32
2023-04-18T05:57:42.748Z,81.83
2023-04-18T06:27:42.446Z,82.26
2023-04-18T06:57:42.637Z,80.8
2023-04-18T07:27:42.546Z,77.92
2023-04-18T07:57:42.440Z,73.55
2023-04-18T08:27:42.307Z,69.98
2023-04-18T08:57:42.524Z,64.93
2023-04-18T09:27:42.102Z,65.15
2023-04-18T09:57:42.320Z,62.99
2023-04-18T10:27:42.505Z,56.97
2023-04-18T10:57:42.082Z,55.12
2023-04-18T11:27:41.912Z,49.42
2023-04-18T11:57:42.554Z,51.05
2023-04-18T12:27:41.761Z,50.92
2023-04-18T12:57:42.311Z,48.92
2023-04-18T13:27:42.192Z,47.37
2023-04-18T13:57:42.056Z,47.41
2023-04-18T14:27:41.946Z,50.59
2023-04-18T14:57:42.143Z,46.54
2023-04-18T15:27:41.758Z,47.07
2023-04-18T15:57:41.993Z,47.29
2023-04-18T16:27:41.533Z,48.15
2023-04-18T16:57:41.721Z,49.74
2023-04-18T17:27:41.919Z,57.38
2023-04-18T17:57:41.851Z,58.17
2023-04-18T18:27:42.016Z,58.55
2023-04-18T18:57:41.449Z,62.89
2023-04-18T19:27:41.175Z,64.89
2023-04-18T19:57:41.577Z,63.74
2023-04-18T20:27:41.578Z,65.76
2023-04-18T20:57:41.480Z,70.31
2023-04-18T21:27:41.392Z,72.31
2023-04-18T22:27:41.157Z,76.31
2023-04-18T22:57:40.868Z,82.63
2023-04-18T23:27:41.604Z,83.97
2023-04-18T23:57:41.175Z,86.24
